MSC Gina — 3FLY9 — position and weather

sailwx.info

Track history (hours):
 
Tides and Currents Weather Stations Pressure Air Temp Water Temp Dewpoint Dewpoint Depression Visibility Wind Speed Wind Dir Waves Ship Positions

MSC Gina

Last reported at 2016-Dec-01 02:04 UTC. Time now 2016-Dec-08 06:03 UTC.
Position N 38°38' W 010°38'.

Length 259 m; draft 9.5 m.

Type: Ship (hazmat cat A). MMSI: 357542000.

Date/timePositionNaut miles runAvg speedWind from/ knotsBaromVisibWave heightAir tempDewpointWater temp
2016-Dec-01 02:04N 38°38' W 010°38'1120.4
2016-Dec-01 01:33N 38°33' W 010°26'2020.1
2016-Dec-01 00:33N 38°24' W 010°03'2020.0
2016-Nov-30 23:33N 38°15' W 009°41'2019.9
2016-Nov-30 22:33N 38°06' W 009°17'2020.1
2016-Nov-30 21:33N 37°56' W 008°55'4 3.6
2016-Nov-30 20:33N 37°56' W 008°51'0 0.0
2016-Nov-30 19:33N 37°56' W 008°51'0 0.0
2016-Nov-30 18:33N 37°56' W 008°51'0 0.0
2016-Nov-30 17:33N 37°56' W 008°51'0 0.0
2016-Nov-30 16:33N 37°56' W 008°51'0 0.0
2016-Nov-30 15:33N 37°56' W 008°51'0 0.0
2016-Nov-30 14:33N 37°56' W 008°51'0 0.0
2016-Nov-30 13:33N 37°56' W 008°51'0 0.0
2016-Nov-30 12:33N 37°56' W 008°51'1 0.5
2016-Nov-30 11:33N 37°55' W 008°51'2 2.0
2016-Nov-30 10:33N 37°54' W 008°51'0 0.1
2016-Nov-30 09:33N 37°54' W 008°52'0 0.1
2016-Nov-30 08:33N 37°54' W 008°52'0 0.0
2016-Nov-30 07:33N 37°54' W 008°52'0 0.0
2016-Nov-30 06:33N 37°54' W 008°52'0 0.0
2016-Nov-30 05:33N 37°54' W 008°52'0 0.0
2016-Nov-30 04:33N 37°54' W 008°52'0 0.0
2016-Nov-30 03:33N 37°54' W 008°52'0 0.0
2016-Nov-30 02:33N 37°54' W 008°52'0 0.0
2016-Nov-30 01:33N 37°54' W 008°52'0 0.0
2016-Nov-30 00:33N 37°54' W 008°52'0 0.0
2016-Nov-29 23:33N 37°54' W 008°52'0 0.0
2016-Nov-29 22:33N 37°54' W 008°52'0 0.0
2016-Nov-29 21:33N 37°54' W 008°52'3 2.9
2016-Nov-29 20:33N 37°51' W 008°53'1717.2
2016-Nov-29 19:33N 37°35' W 009°01'19112.3
2016-Nov-29 04:05N 35°58' W 005°36'611.6
2016-Nov-29 03:33N 35°60' W 005°29'1312.6
2016-Nov-29 02:33N 36°03' W 005°14'11313.7
2016-Nov-28 18:17N 36°21' W 002°55'1114.6
2016-Nov-28 17:33N 36°23' W 002°42'6013.6
2016-Nov-28 13:09N 36°52' W 001°36'2714.8
2016-Nov-28 11:22N 37°10' W 001°12'1215.0
2016-Nov-28 10:33N 37°18' W 001°00'1514.9
2016-Nov-28 09:33N 37°27' W 000°46'1514.7
2016-Nov-28 08:33N 37°37' W 000°32'2317.3
2016-Nov-28 07:14N 37°56' W 000°16'11216.6
2016-Nov-28 00:29N 39°21' E 001°17'1516.3
2016-Nov-27 23:33N 39°31' E 001°32'1716.6
2016-Nov-27 22:33N 39°42' E 001°49'1616.2
2016-Nov-27 21:33N 39°53' E 002°04'1616.5
2016-Nov-27 20:33N 40°04' E 002°20'1716.9
2016-Nov-27 19:33N 40°15' E 002°38'1616.4
2016-Nov-27 18:33N 40°25' E 002°54'1616.2
2016-Nov-27 17:33N 40°36' E 003°09'1616.0
2016-Nov-27 16:33N 40°48' E 003°24'1716.6
2016-Nov-27 15:33N 40°57' E 003°42'21117.1
2016-Nov-27 03:12N 43°16' E 007°16'6417.4
2016-Nov-26 23:33N 43°59' E 008°21'1717.4
2016-Nov-26 22:33N 44°14' E 008°34'1414.3
2016-Nov-26 21:33N 44°25' E 008°46'1 0.7
2016-Nov-26 20:32N 44°25' E 008°47'0 0.0
2016-Nov-26 19:32N 44°25' E 008°47'0 0.0
2016-Nov-26 18:32N 44°25' E 008°47'0 0.0
2016-Nov-26 17:32N 44°25' E 008°47'0 0.0
2016-Nov-26 16:32N 44°25' E 008°47'0 0.0
2016-Nov-26 15:29N 44°25' E 008°47'0 0.0
2016-Nov-26 14:32N 44°25' E 008°47'0 0.0
2016-Nov-26 13:32N 44°25' E 008°47'0 0.0
2016-Nov-26 12:29N 44°25' E 008°47'0 0.0
2016-Nov-26 11:32N 44°25' E 008°47'0 0.0
2016-Nov-26 10:32N 44°25' E 008°47'0 0.0
2016-Nov-26 09:29N 44°25' E 008°47'0 0.0
2016-Nov-26 08:32N 44°25' E 008°47'0 0.0
2016-Nov-26 07:33N 44°25' E 008°47'4 4.3
2016-Nov-26 06:33N 44°22' E 008°43'1413.7
2016-Nov-26 05:33N 44°12' E 008°56'1817.5
2016-Nov-26 04:34N 43°60' E 009°14'2019.7
2016-Nov-26 03:33N 43°46' E 009°33'2019.8
2016-Nov-26 02:34N 43°32' E 009°52'1717.2
2016-Nov-26 01:34N 43°32' E 010°16'3 2.6
2016-Nov-26 00:31N 43°35' E 010°18'0 0.0
2016-Nov-25 23:31N 43°35' E 010°18'0 0.0
2016-Nov-25 22:31N 43°35' E 010°18'0 0.0
2016-Nov-25 21:31N 43°35' E 010°18'0 0.0
2016-Nov-25 20:31N 43°35' E 010°18'0 0.0
2016-Nov-25 19:31N 43°35' E 010°18'0 0.0
2016-Nov-25 18:31N 43°35' E 010°18'0 0.1
2016-Nov-25 17:33N 43°34' E 010°18'3 3.4
2016-Nov-25 16:33N 43°31' E 010°16'1716.9
2016-Nov-25 15:33N 43°20' E 009°58'2020.4
2016-Nov-25 14:33N 43°05' E 009°40'2720.4
2016-Nov-25 13:15N 42°39' E 009°48'30920.3
2016-Nov-24 22:05N 39°13' E 014°52'1121.2
2016-Nov-24 21:33N 39°06' E 015°03'2221.1
2016-Nov-24 20:32N 38°52' E 015°24'2121.2
2016-Nov-24 19:33N 38°37' E 015°42'1313.5
2016-Nov-24 18:34N 38°27' E 015°54'0 0.1
2016-Nov-24 17:33N 38°28' E 015°54'0 0.0
2016-Nov-24 16:33N 38°28' E 015°54'0 0.0
2016-Nov-24 15:33N 38°28' E 015°54'0 0.0
2016-Nov-24 14:33N 38°28' E 015°54'0 0.0
2016-Nov-24 13:33N 38°28' E 015°54'0 0.0
2016-Nov-24 12:33N 38°28' E 015°54'0 0.0
2016-Nov-24 11:33N 38°28' E 015°54'0 0.0
2016-Nov-24 10:33N 38°28' E 015°54'0 0.0
2016-Nov-24 09:27N 38°28' E 015°54'0 0.0
2016-Nov-24 08:33N 38°28' E 015°54'0 0.0
2016-Nov-24 07:33N 38°28' E 015°54'0 0.0
2016-Nov-24 06:30N 38°28' E 015°54'0 0.0
2016-Nov-24 05:27N 38°28' E 015°54'0 0.0
2016-Nov-24 04:33N 38°28' E 015°54'0 0.0
2016-Nov-24 03:33N 38°28' E 015°54'0 0.0
2016-Nov-24 02:33N 38°28' E 015°54'0 0.0
2016-Nov-24 01:21N 38°28' E 015°54'0 0.0
2016-Nov-24 00:21N 38°28' E 015°54'0 0.0
2016-Nov-23 23:33N 38°28' E 015°54'0 0.0
2016-Nov-23 22:27N 38°28' E 015°54'0 0.0
2016-Nov-23 21:33N 38°28' E 015°54'0 0.0
2016-Nov-23 20:30N 38°28' E 015°54'0 0.0
2016-Nov-23 19:33N 38°28' E 015°54'0 0.0
2016-Nov-23 18:33N 38°28' E 015°54'0 0.0
2016-Nov-23 17:33N 38°28' E 015°54'0 0.0
2016-Nov-23 16:33N 38°28' E 015°54'0 0.0
2016-Nov-23 15:27N 38°28' E 015°54'0 0.0
2016-Nov-23 14:24N 38°28' E 015°54'0 0.0
2016-Nov-23 13:33N 38°28' E 015°54'0 0.0
2016-Nov-23 12:30N 38°28' E 015°54'0 0.0
2016-Nov-23 11:27N 38°28' E 015°54'0 0.0
2016-Nov-23 10:12N 38°28' E 015°54'0 0.0
2016-Nov-23 09:30N 38°28' E 015°54'0 0.5
2016-Nov-23 08:34N 38°27' E 015°54'2 2.2
2016-Nov-23 07:33N 38°27' E 015°51'5 4.9
2016-Nov-23 06:33N 38°26' E 015°45'5719.0
2016-Nov-23 03:33N 38°16' E 014°34'2019.9
2016-Nov-23 02:33N 38°16' E 014°08'3919.7
2016-Nov-23 00:34N 38°18' E 013°18'2019.7
2016-Nov-22 23:34N 38°18' E 012°53'2119.6
2016-Nov-22 22:31N 38°18' E 012°27'85020.3
2016-Nov-21 04:33N 36°01' W 005°06'  
Track history (hours):
 
Tides and Currents Weather Stations Pressure Air Temp Water Temp Dewpoint Dewpoint Depression Visibility Wind Speed Wind Dir Waves Ship Positions

MSC Gina

Last reported at 2016-Dec-01 02:04 UTC. Time now 2016-Dec-08 06:03 UTC.
Position N 38°38' W 010°38'.

Length 259 m; draft 9.5 m.

Type: Ship (hazmat cat A). MMSI: 357542000.

Date/timePositionNaut miles runAvg speedWind from/ knotsBaromVisibWave heightAir tempDewpointWater temp
2016-Dec-01 02:04N 38°38' W 010°38'1120.4
2016-Dec-01 01:33N 38°33' W 010°26'2020.1
2016-Dec-01 00:33N 38°24' W 010°03'2020.0
2016-Nov-30 23:33N 38°15' W 009°41'2019.9
2016-Nov-30 22:33N 38°06' W 009°17'2020.1
2016-Nov-30 21:33N 37°56' W 008°55'4 3.6
2016-Nov-30 20:33N 37°56' W 008°51'0 0.0
2016-Nov-30 19:33N 37°56' W 008°51'0 0.0
2016-Nov-30 18:33N 37°56' W 008°51'0 0.0
2016-Nov-30 17:33N 37°56' W 008°51'0 0.0
2016-Nov-30 16:33N 37°56' W 008°51'0 0.0
2016-Nov-30 15:33N 37°56' W 008°51'0 0.0
2016-Nov-30 14:33N 37°56' W 008°51'0 0.0
2016-Nov-30 13:33N 37°56' W 008°51'0 0.0
2016-Nov-30 12:33N 37°56' W 008°51'1 0.5
2016-Nov-30 11:33N 37°55' W 008°51'2 2.0
2016-Nov-30 10:33N 37°54' W 008°51'0 0.1
2016-Nov-30 09:33N 37°54' W 008°52'0 0.1
2016-Nov-30 08:33N 37°54' W 008°52'0 0.0
2016-Nov-30 07:33N 37°54' W 008°52'0 0.0
2016-Nov-30 06:33N 37°54' W 008°52'0 0.0
2016-Nov-30 05:33N 37°54' W 008°52'0 0.0
2016-Nov-30 04:33N 37°54' W 008°52'0 0.0
2016-Nov-30 03:33N 37°54' W 008°52'0 0.0
2016-Nov-30 02:33N 37°54' W 008°52'0 0.0
2016-Nov-30 01:33N 37°54' W 008°52'0 0.0
2016-Nov-30 00:33N 37°54' W 008°52'0 0.0
2016-Nov-29 23:33N 37°54' W 008°52'0 0.0
2016-Nov-29 22:33N 37°54' W 008°52'0 0.0
2016-Nov-29 21:33N 37°54' W 008°52'3 2.9
2016-Nov-29 20:33N 37°51' W 008°53'1717.2
2016-Nov-29 19:33N 37°35' W 009°01'19112.3
2016-Nov-29 04:05N 35°58' W 005°36'611.6
2016-Nov-29 03:33N 35°60' W 005°29'1312.6
2016-Nov-29 02:33N 36°03' W 005°14'11313.7
2016-Nov-28 18:17N 36°21' W 002°55'1114.6
2016-Nov-28 17:33N 36°23' W 002°42'6013.6
2016-Nov-28 13:09N 36°52' W 001°36'2714.8
2016-Nov-28 11:22N 37°10' W 001°12'1215.0
2016-Nov-28 10:33N 37°18' W 001°00'1514.9
2016-Nov-28 09:33N 37°27' W 000°46'1514.7
2016-Nov-28 08:33N 37°37' W 000°32'2317.3
2016-Nov-28 07:14N 37°56' W 000°16'11216.6
2016-Nov-28 00:29N 39°21' E 001°17'1516.3
2016-Nov-27 23:33N 39°31' E 001°32'1716.6
2016-Nov-27 22:33N 39°42' E 001°49'1616.2
2016-Nov-27 21:33N 39°53' E 002°04'1616.5
2016-Nov-27 20:33N 40°04' E 002°20'1716.9
2016-Nov-27 19:33N 40°15' E 002°38'1616.4
2016-Nov-27 18:33N 40°25' E 002°54'1616.2
2016-Nov-27 17:33N 40°36' E 003°09'1616.0
2016-Nov-27 16:33N 40°48' E 003°24'1716.6
2016-Nov-27 15:33N 40°57' E 003°42'21117.1
2016-Nov-27 03:12N 43°16' E 007°16'6417.4
2016-Nov-26 23:33N 43°59' E 008°21'1717.4
2016-Nov-26 22:33N 44°14' E 008°34'1414.3
2016-Nov-26 21:33N 44°25' E 008°46'1 0.7
2016-Nov-26 20:32N 44°25' E 008°47'0 0.0
2016-Nov-26 19:32N 44°25' E 008°47'0 0.0
2016-Nov-26 18:32N 44°25' E 008°47'0 0.0
2016-Nov-26 17:32N 44°25' E 008°47'0 0.0
2016-Nov-26 16:32N 44°25' E 008°47'0 0.0
2016-Nov-26 15:29N 44°25' E 008°47'0 0.0
2016-Nov-26 14:32N 44°25' E 008°47'0 0.0
2016-Nov-26 13:32N 44°25' E 008°47'0 0.0
2016-Nov-26 12:29N 44°25' E 008°47'0 0.0
2016-Nov-26 11:32N 44°25' E 008°47'0 0.0
2016-Nov-26 10:32N 44°25' E 008°47'0 0.0
2016-Nov-26 09:29N 44°25' E 008°47'0 0.0
2016-Nov-26 08:32N 44°25' E 008°47'0 0.0
2016-Nov-26 07:33N 44°25' E 008°47'4 4.3
2016-Nov-26 06:33N 44°22' E 008°43'1413.7
2016-Nov-26 05:33N 44°12' E 008°56'1817.5
2016-Nov-26 04:34N 43°60' E 009°14'2019.7
2016-Nov-26 03:33N 43°46' E 009°33'2019.8
2016-Nov-26 02:34N 43°32' E 009°52'1717.2
2016-Nov-26 01:34N 43°32' E 010°16'3 2.6
2016-Nov-26 00:31N 43°35' E 010°18'0 0.0
2016-Nov-25 23:31N 43°35' E 010°18'0 0.0
2016-Nov-25 22:31N 43°35' E 010°18'0 0.0
2016-Nov-25 21:31N 43°35' E 010°18'0 0.0
2016-Nov-25 20:31N 43°35' E 010°18'0 0.0
2016-Nov-25 19:31N 43°35' E 010°18'0 0.0
2016-Nov-25 18:31N 43°35' E 010°18'0 0.1
2016-Nov-25 17:33N 43°34' E 010°18'3 3.4
2016-Nov-25 16:33N 43°31' E 010°16'1716.9
2016-Nov-25 15:33N 43°20' E 009°58'2020.4
2016-Nov-25 14:33N 43°05' E 009°40'2720.4
2016-Nov-25 13:15N 42°39' E 009°48'30920.3
2016-Nov-24 22:05N 39°13' E 014°52'1121.2
2016-Nov-24 21:33N 39°06' E 015°03'2221.1
2016-Nov-24 20:32N 38°52' E 015°24'2121.2
2016-Nov-24 19:33N 38°37' E 015°42'1313.5
2016-Nov-24 18:34N 38°27' E 015°54'0 0.1
2016-Nov-24 17:33N 38°28' E 015°54'0 0.0
2016-Nov-24 16:33N 38°28' E 015°54'0 0.0
2016-Nov-24 15:33N 38°28' E 015°54'0 0.0
2016-Nov-24 14:33N 38°28' E 015°54'0 0.0
2016-Nov-24 13:33N 38°28' E 015°54'0 0.0
2016-Nov-24 12:33N 38°28' E 015°54'0 0.0
2016-Nov-24 11:33N 38°28' E 015°54'0 0.0
2016-Nov-24 10:33N 38°28' E 015°54'0 0.0
2016-Nov-24 09:27N 38°28' E 015°54'0 0.0
2016-Nov-24 08:33N 38°28' E 015°54'0 0.0
2016-Nov-24 07:33N 38°28' E 015°54'0 0.0
2016-Nov-24 06:30N 38°28' E 015°54'0 0.0
2016-Nov-24 05:27N 38°28' E 015°54'0 0.0
2016-Nov-24 04:33N 38°28' E 015°54'0 0.0
2016-Nov-24 03:33N 38°28' E 015°54'0 0.0
2016-Nov-24 02:33N 38°28' E 015°54'0 0.0
2016-Nov-24 01:21N 38°28' E 015°54'0 0.0
2016-Nov-24 00:21N 38°28' E 015°54'0 0.0
2016-Nov-23 23:33N 38°28' E 015°54'0 0.0
2016-Nov-23 22:27N 38°28' E 015°54'0 0.0
2016-Nov-23 21:33N 38°28' E 015°54'0 0.0
2016-Nov-23 20:30N 38°28' E 015°54'0 0.0
2016-Nov-23 19:33N 38°28' E 015°54'0 0.0
2016-Nov-23 18:33N 38°28' E 015°54'0 0.0
2016-Nov-23 17:33N 38°28' E 015°54'0 0.0
2016-Nov-23 16:33N 38°28' E 015°54'0 0.0
2016-Nov-23 15:27N 38°28' E 015°54'0 0.0
2016-Nov-23 14:24N 38°28' E 015°54'0 0.0
2016-Nov-23 13:33N 38°28' E 015°54'0 0.0
2016-Nov-23 12:30N 38°28' E 015°54'0 0.0
2016-Nov-23 11:27N 38°28' E 015°54'0 0.0
2016-Nov-23 10:12N 38°28' E 015°54'0 0.0
2016-Nov-23 09:30N 38°28' E 015°54'0 0.5
2016-Nov-23 08:34N 38°27' E 015°54'2 2.2
2016-Nov-23 07:33N 38°27' E 015°51'5 4.9
2016-Nov-23 06:33N 38°26' E 015°45'5719.0
2016-Nov-23 03:33N 38°16' E 014°34'2019.9
2016-Nov-23 02:33N 38°16' E 014°08'3919.7
2016-Nov-23 00:34N 38°18' E 013°18'2019.7
2016-Nov-22 23:34N 38°18' E 012°53'2119.6
2016-Nov-22 22:31N 38°18' E 012°27'85020.3
2016-Nov-21 04:33N 36°01' W 005°06'  

Dump ship's entire track history